createdAt,value
2018-03-26T00:00:26.340Z,0.00
2018-03-26T00:01:26.319Z,0.00
2018-03-26T00:02:26.298Z,0.00
2018-03-26T00:03:26.274Z,0.00
2018-03-26T00:04:26.264Z,0.00
2018-03-26T00:05:26.238Z,0.00
2018-03-26T00:06:26.214Z,0.00
2018-03-26T00:07:26.200Z,0.00
2018-03-26T00:08:26.178Z,0.00
2018-03-26T00:09:26.158Z,0.00
2018-03-26T00:10:26.137Z,0.00
2018-03-26T00:11:26.115Z,0.00
2018-03-26T00:12:26.095Z,0.00
2018-03-26T00:13:26.079Z,0.00
2018-03-26T00:14:26.058Z,0.00
2018-03-26T00:15:26.037Z,0.00
2018-03-26T00:16:26.020Z,0.00
2018-03-26T00:17:25.997Z,0.00
2018-03-26T00:18:25.975Z,0.00
2018-03-26T00:19:25.958Z,0.00
2018-03-26T00:20:25.936Z,0.00
2018-03-26T00:21:25.923Z,0.00
2018-03-26T00:22:25.894Z,0.00
2018-03-26T00:23:25.877Z,0.00
2018-03-26T00:24:25.855Z,0.00
2018-03-26T00:25:25.907Z,0.00
2018-03-26T00:26:25.821Z,0.00
2018-03-26T00:27:25.807Z,0.00
2018-03-26T00:28:25.800Z,0.00
2018-03-26T00:29:25.768Z,0.00
2018-03-26T00:30:25.734Z,0.00
2018-03-26T00:31:25.715Z,0.00
2018-03-26T00:32:25.694Z,0.00
2018-03-26T00:33:25.676Z,0.00
2018-03-26T00:34:25.658Z,0.00
2018-03-26T00:35:25.635Z,0.00
2018-03-26T00:36:25.617Z,0.00
2018-03-26T00:37:25.594Z,0.00
2018-03-26T00:38:25.573Z,0.00
2018-03-26T00:39:25.569Z,0.00
2018-03-26T00:40:25.535Z,0.00
2018-03-26T00:41:25.512Z,0.00
2018-03-26T00:42:25.491Z,0.00
2018-03-26T00:43:25.473Z,0.00
2018-03-26T00:44:25.455Z,0.00
2018-03-26T00:45:25.433Z,0.00
2018-03-26T00:46:25.411Z,0.00
2018-03-26T00:47:25.499Z,0.00
2018-03-26T00:48:25.391Z,0.00
2018-03-26T00:49:25.352Z,0.00
2018-03-26T00:50:25.333Z,0.00
2018-03-26T00:51:25.308Z,0.00
2018-03-26T00:52:25.288Z,0.00
2018-03-26T00:53:25.271Z,0.00
2018-03-26T00:54:25.251Z,0.00
2018-03-26T00:55:25.228Z,0.00
2018-03-26T00:56:25.221Z,0.00
2018-03-26T00:57:25.188Z,0.00
2018-03-26T00:58:25.169Z,0.00
2018-03-26T00:59:25.150Z,0.00
2018-03-26T01:00:25.129Z,0.00
2018-03-26T01:01:25.106Z,0.00
2018-03-26T01:02:25.089Z,0.00
2018-03-26T01:03:25.075Z,0.00
2018-03-26T01:04:25.053Z,0.00
2018-03-26T01:05:25.028Z,0.00
2018-03-26T01:06:25.003Z,0.00
2018-03-26T01:07:24.990Z,0.00
2018-03-26T01:08:24.962Z,0.00
2018-03-26T01:09:24.942Z,0.00
2018-03-26T01:10:24.920Z,0.00
2018-03-26T01:11:24.901Z,0.00
2018-03-26T01:12:24.879Z,0.00
2018-03-26T01:13:24.867Z,0.00
2018-03-26T01:14:24.859Z,0.00
2018-03-26T01:15:24.819Z,0.00
2018-03-26T01:16:24.797Z,0.00
2018-03-26T01:17:24.832Z,0.00
2018-03-26T01:18:24.757Z,0.00
2018-03-26T01:19:24.736Z,0.00
2018-03-26T01:20:24.719Z,0.00
2018-03-26T01:21:24.696Z,0.00
2018-03-26T01:22:24.676Z,0.00
2018-03-26T01:23:24.662Z,0.00
2018-03-26T01:24:24.635Z,0.00
2018-03-26T01:25:24.615Z,0.00
2018-03-26T01:26:24.596Z,0.00
2018-03-26T01:27:24.576Z,0.00
2018-03-26T01:28:24.559Z,0.00
2018-03-26T01:29:24.530Z,0.00
2018-03-26T01:30:24.510Z,0.00
2018-03-26T01:31:24.488Z,0.00
2018-03-26T01:32:24.466Z,0.00
2018-03-26T01:33:24.456Z,0.00
2018-03-26T01:34:24.427Z,0.00
2018-03-26T01:35:24.407Z,0.00
2018-03-26T01:36:24.507Z,0.00
2018-03-26T01:37:24.367Z,0.00
2018-03-26T01:38:24.354Z,0.00
2018-03-26T01:39:24.423Z,0.00
2018-03-26T01:40:24.339Z,0.00
2018-03-26T01:41:24.284Z,0.00
2018-03-26T01:42:24.272Z,0.00
2018-03-26T01:43:24.250Z,0.00
2018-03-26T01:44:24.222Z,0.00
2018-03-26T01:45:24.204Z,0.00
2018-03-26T01:46:24.204Z,0.00
2018-03-26T01:47:24.157Z,0.00
2018-03-26T01:48:24.138Z,0.00
2018-03-26T01:49:24.117Z,0.00
2018-03-26T01:50:24.098Z,0.00
2018-03-26T01:51:24.077Z,0.00
2018-03-26T01:52:24.059Z,0.00
2018-03-26T01:53:24.043Z,0.00
2018-03-26T01:54:24.022Z,0.00
2018-03-26T01:55:24.004Z,0.00
2018-03-26T01:56:23.985Z,0.00
2018-03-26T01:57:23.964Z,0.00
2018-03-26T01:58:23.934Z,0.00
2018-03-26T01:59:23.915Z,0.00
2018-03-26T02:00:23.887Z,0.00
2018-03-26T02:01:23.867Z,0.00
2018-03-26T02:02:23.854Z,0.00
2018-03-26T02:03:23.832Z,0.00
2018-03-26T02:04:23.803Z,0.00
2018-03-26T02:05:23.782Z,0.00
2018-03-26T02:06:23.847Z,0.00
2018-03-26T02:07:23.760Z,0.00
2018-03-26T02:08:23.728Z,0.00
2018-03-26T02:09:23.704Z,0.00
2018-03-26T02:10:23.687Z,0.00
2018-03-26T02:11:23.661Z,0.00
2018-03-26T02:12:23.636Z,0.00
2018-03-26T02:13:23.615Z,0.00
2018-03-26T02:14:23.595Z,0.00
2018-03-26T02:15:23.586Z,0.00
2018-03-26T02:16:23.562Z,0.00
2018-03-26T02:17:23.532Z,0.00
2018-03-26T02:18:23.509Z,0.00
2018-03-26T02:19:23.502Z,0.00
2018-03-26T02:20:23.470Z,0.00
2018-03-26T02:21:23.449Z,0.00
2018-03-26T02:22:23.434Z,0.00
2018-03-26T02:23:23.406Z,0.00
2018-03-26T02:24:23.384Z,0.00
2018-03-26T02:25:23.398Z,0.00
2018-03-26T02:26:23.340Z,0.00
2018-03-26T02:27:23.322Z,0.00
2018-03-26T02:28:23.301Z,0.00
2018-03-26T02:29:23.287Z,0.00
2018-03-26T02:30:23.259Z,0.00
2018-03-26T02:31:23.238Z,0.00
2018-03-26T02:32:23.243Z,0.00
2018-03-26T02:33:23.198Z,0.00
2018-03-26T02:34:23.178Z,0.00
2018-03-26T02:35:23.152Z,0.00
2018-03-26T02:36:23.133Z,0.00
2018-03-26T02:37:23.114Z,0.00
2018-03-26T02:38:23.090Z,0.00
2018-03-26T02:39:23.070Z,0.00
2018-03-26T02:40:23.048Z,0.00
2018-03-26T02:41:23.027Z,0.00
2018-03-26T02:42:23.017Z,0.00
2018-03-26T02:43:22.988Z,0.00
2018-03-26T02:44:22.982Z,0.00
2018-03-26T02:45:22.943Z,0.00
2018-03-26T02:46:22.936Z,0.00
2018-03-26T02:47:22.909Z,0.00
2018-03-26T02:48:22.880Z,0.00
2018-03-26T02:49:22.877Z,0.00
2018-03-26T02:50:22.840Z,0.00
2018-03-26T02:51:22.817Z,0.00
2018-03-26T02:52:22.797Z,0.00
2018-03-26T02:53:22.842Z,0.00
2018-03-26T02:54:22.763Z,0.00
2018-03-26T02:55:22.742Z,0.00
2018-03-26T02:56:22.710Z,0.00
2018-03-26T02:57:22.688Z,0.00
2018-03-26T02:58:22.673Z,0.00
2018-03-26T02:59:22.646Z,0.00
2018-03-26T03:00:22.637Z,0.00
2018-03-26T03:01:22.605Z,0.00
2018-03-26T03:02:22.590Z,0.00
2018-03-26T03:03:22.560Z,0.00
2018-03-26T03:04:22.541Z,0.00
2018-03-26T03:05:22.519Z,0.00
2018-03-26T03:06:22.495Z,0.00
2018-03-26T03:07:22.474Z,0.00
2018-03-26T03:08:22.458Z,0.00
2018-03-26T03:09:22.440Z,0.00
2018-03-26T03:10:22.414Z,0.00
2018-03-26T03:11:22.397Z,0.00
2018-03-26T03:12:22.368Z,0.00
2018-03-26T03:13:22.346Z,0.00
2018-03-26T03:14:22.325Z,0.00
2018-03-26T03:15:22.303Z,0.00
2018-03-26T03:16:22.286Z,0.00
2018-03-26T03:17:22.352Z,0.00
2018-03-26T03:18:22.240Z,0.00
2018-03-26T03:19:22.218Z,0.00
2018-03-26T03:20:22.225Z,0.00
2018-03-26T03:21:22.186Z,0.00
2018-03-26T03:22:22.151Z,0.00
2018-03-26T03:23:22.134Z,0.00
2018-03-26T03:24:22.110Z,0.00
2018-03-26T03:25:22.089Z,0.00
2018-03-26T03:26:22.072Z,0.00
2018-03-26T03:27:22.046Z,0.00
2018-03-26T03:28:22.027Z,0.00
2018-03-26T03:29:22.004Z,0.00
2018-03-26T03:30:21.981Z,0.00
2018-03-26T03:31:21.965Z,0.00
2018-03-26T03:32:21.940Z,0.00
2018-03-26T03:33:21.922Z,0.00
2018-03-26T03:34:21.897Z,0.00
2018-03-26T03:35:21.873Z,0.00
2018-03-26T03:36:21.853Z,0.00
2018-03-26T03:37:21.832Z,0.00
2018-03-26T03:38:21.839Z,0.00
2018-03-26T03:39:21.858Z,0.00
2018-03-26T03:40:21.767Z,0.00
2018-03-26T03:41:21.758Z,0.00
2018-03-26T03:42:21.725Z,0.00
2018-03-26T03:43:21.702Z,0.00
2018-03-26T03:44:21.682Z,0.00
2018-03-26T03:45:21.662Z,0.00
2018-03-26T03:46:21.640Z,0.00
2018-03-26T03:47:21.731Z,0.00
2018-03-26T03:48:21.593Z,0.00
2018-03-26T03:49:21.580Z,0.00
2018-03-26T03:50:21.668Z,0.00
2018-03-26T03:51:21.530Z,0.00
2018-03-26T03:52:21.510Z,0.00
2018-03-26T03:53:21.491Z,0.00
2018-03-26T03:54:21.469Z,0.00
2018-03-26T03:55:21.444Z,0.00
2018-03-26T03:56:21.464Z,0.00
2018-03-26T03:57:21.403Z,0.00
2018-03-26T03:58:21.380Z,0.00
2018-03-26T03:59:21.359Z,0.00
2018-03-26T04:00:21.337Z,0.00
2018-03-26T04:01:21.320Z,0.00
2018-03-26T04:02:21.292Z,0.00
2018-03-26T04:03:21.277Z,0.00
2018-03-26T04:04:21.257Z,0.00
2018-03-26T04:05:21.229Z,0.00
2018-03-26T04:06:21.206Z,0.00
2018-03-26T04:07:21.184Z,0.00
2018-03-26T04:08:21.166Z,0.00
2018-03-26T04:09:21.141Z,0.00
2018-03-26T04:10:21.125Z,0.00
2018-03-26T04:11:21.107Z,0.00
2018-03-26T04:12:21.084Z,0.00
2018-03-26T04:13:21.057Z,0.00
2018-03-26T04:14:21.034Z,0.00
2018-03-26T04:15:21.010Z,0.00
2018-03-26T04:16:20.990Z,0.00
2018-03-26T04:17:20.968Z,0.00
2018-03-26T04:18:20.954Z,0.00
2018-03-26T04:19:20.940Z,0.00
2018-03-26T04:20:20.900Z,0.00
2018-03-26T04:21:20.880Z,0.00
2018-03-26T04:22:20.946Z,0.00
2018-03-26T04:23:20.838Z,0.00
2018-03-26T04:24:20.817Z,0.00
2018-03-26T04:25:20.806Z,0.00
2018-03-26T04:26:20.776Z,0.00
2018-03-26T04:27:20.750Z,0.00
2018-03-26T04:28:20.729Z,0.00
2018-03-26T04:29:20.707Z,0.00
2018-03-26T04:30:20.684Z,0.00
2018-03-26T04:31:20.665Z,0.00
2018-03-26T04:32:20.645Z,0.00
2018-03-26T04:33:20.623Z,0.00
2018-03-26T04:34:20.599Z,0.00
2018-03-26T04:35:20.690Z,0.00
2018-03-26T04:36:20.556Z,0.00
2018-03-26T04:37:20.533Z,0.00
2018-03-26T04:38:20.514Z,0.00
2018-03-26T04:39:20.495Z,0.00
2018-03-26T04:40:20.467Z,0.00
2018-03-26T04:41:20.597Z,0.00
2018-03-26T04:42:20.423Z,0.00
2018-03-26T04:43:20.402Z,0.00
2018-03-26T04:44:20.485Z,0.00
2018-03-26T04:45:20.363Z,0.00
2018-03-26T04:46:20.338Z,0.00
2018-03-26T04:47:20.318Z,0.00
2018-03-26T04:48:20.293Z,0.00
2018-03-26T04:49:20.272Z,0.00
2018-03-26T04:50:20.313Z,0.00
2018-03-26T04:51:20.226Z,0.00
2018-03-26T04:52:20.276Z,0.00
2018-03-26T04:53:20.184Z,0.00
2018-03-26T04:54:20.161Z,0.00
2018-03-26T04:55:20.194Z,0.00
2018-03-26T04:56:20.128Z,0.00
2018-03-26T04:57:20.102Z,0.00
2018-03-26T04:58:20.079Z,0.00
2018-03-26T04:59:20.060Z,0.00
2018-03-26T05:00:20.033Z,0.00
2018-03-26T05:01:20.012Z,0.00
2018-03-26T05:02:19.999Z,0.00
2018-03-26T05:03:19.973Z,0.00
2018-03-26T05:04:19.945Z,0.00
2018-03-26T05:05:19.925Z,0.00
2018-03-26T05:06:19.902Z,0.00
2018-03-26T05:07:19.878Z,0.00
2018-03-26T05:08:19.860Z,0.00
2018-03-26T05:09:19.837Z,0.00
2018-03-26T05:10:19.815Z,0.00
2018-03-26T05:11:19.810Z,0.00
2018-03-26T05:12:19.773Z,0.00
2018-03-26T05:13:19.748Z,5.63
2018-03-26T05:14:19.876Z,5.63
2018-03-26T05:15:19.703Z,5.63
2018-03-26T05:16:19.684Z,5.63
2018-03-26T05:17:19.660Z,5.63
2018-03-26T05:18:19.638Z,5.63
2018-03-26T05:19:19.617Z,5.63
2018-03-26T05:20:19.605Z,5.63
2018-03-26T05:21:19.580Z,5.63
2018-03-26T05:22:19.557Z,11.25
2018-03-26T05:23:19.539Z,11.25
2018-03-26T05:24:19.507Z,11.25
2018-03-26T05:25:19.486Z,11.25
2018-03-26T05:26:19.462Z,11.25
2018-03-26T05:27:19.442Z,16.88
2018-03-26T05:28:19.440Z,16.88
2018-03-26T05:29:19.399Z,16.88
2018-03-26T05:30:19.386Z,22.50
2018-03-26T05:31:19.356Z,22.50
2018-03-26T05:32:19.337Z,22.50
2018-03-26T05:33:19.454Z,22.50
2018-03-26T05:34:19.294Z,28.13
2018-03-26T05:35:19.266Z,28.13
2018-03-26T05:36:19.252Z,33.75
2018-03-26T05:37:19.225Z,39.38
2018-03-26T05:38:19.202Z,39.38
2018-03-26T05:39:19.182Z,45.00
2018-03-26T05:40:19.158Z,50.63
2018-03-26T05:41:19.137Z,56.25
2018-03-26T05:42:19.127Z,56.25
2018-03-26T05:43:19.098Z,56.25
2018-03-26T05:44:19.133Z,56.25
2018-03-26T05:45:19.052Z,61.88
2018-03-26T05:46:19.028Z,67.50
2018-03-26T05:47:19.052Z,73.13
2018-03-26T05:48:18.979Z,78.75
2018-03-26T05:49:18.960Z,84.38
2018-03-26T05:50:18.945Z,84.38
2018-03-26T05:51:18.925Z,78.75
2018-03-26T05:52:18.894Z,78.75
2018-03-26T05:53:18.875Z,73.13
2018-03-26T05:54:18.849Z,67.50
2018-03-26T05:55:18.828Z,67.50
2018-03-26T05:56:18.808Z,67.50
2018-03-26T05:57:18.783Z,67.50
2018-03-26T05:58:18.762Z,67.50
2018-03-26T05:59:18.743Z,67.50
2018-03-26T06:00:18.718Z,67.50
2018-03-26T06:01:18.697Z,73.13
2018-03-26T06:02:18.675Z,78.75
2018-03-26T06:03:18.659Z,84.38
2018-03-26T06:04:18.633Z,90.00
2018-03-26T06:05:18.609Z,101.25
2018-03-26T06:06:18.588Z,106.88
2018-03-26T06:07:18.572Z,106.88
2018-03-26T06:08:18.541Z,112.50
2018-03-26T06:09:18.665Z,112.50
2018-03-26T06:10:18.501Z,112.50
2018-03-26T06:11:18.477Z,112.50
2018-03-26T06:12:18.459Z,118.13
2018-03-26T06:13:18.433Z,129.38
2018-03-26T06:14:18.422Z,140.63
2018-03-26T06:15:18.389Z,146.25
2018-03-26T06:16:18.368Z,146.25
2018-03-26T06:17:18.346Z,146.25
2018-03-26T06:18:18.323Z,146.25
2018-03-26T06:19:18.308Z,146.25
2018-03-26T06:20:18.281Z,151.88
2018-03-26T06:21:18.260Z,163.13
2018-03-26T06:22:18.239Z,174.38
2018-03-26T06:23:18.215Z,180.00
2018-03-26T06:24:18.192Z,185.63
2018-03-26T06:25:18.176Z,196.88
2018-03-26T06:26:18.350Z,213.75
2018-03-26T06:27:18.130Z,225.00
2018-03-26T06:28:18.111Z,236.25
2018-03-26T06:29:18.242Z,241.88
2018-03-26T06:30:18.062Z,253.13
2018-03-26T06:31:18.042Z,270.00
2018-03-26T06:32:18.040Z,281.25
2018-03-26T06:33:18.003Z,286.88
2018-03-26T06:34:17.977Z,286.88
2018-03-26T06:35:17.960Z,303.75
2018-03-26T06:36:17.939Z,303.75
2018-03-26T06:37:17.913Z,303.75
2018-03-26T06:38:17.894Z,298.13
2018-03-26T06:39:17.870Z,281.25
2018-03-26T06:40:17.866Z,286.88
2018-03-26T06:41:17.825Z,298.13
2018-03-26T06:42:17.808Z,309.38
2018-03-26T06:43:17.785Z,309.38
2018-03-26T06:44:17.798Z,309.38
2018-03-26T06:45:17.748Z,303.75
2018-03-26T06:46:17.733Z,298.13
2018-03-26T06:47:17.699Z,292.50
2018-03-26T06:48:17.687Z,292.50
2018-03-26T06:49:17.663Z,286.88
2018-03-26T06:50:17.646Z,286.88
2018-03-26T06:51:17.635Z,298.13
2018-03-26T06:52:17.598Z,320.63
2018-03-26T06:53:17.584Z,326.25
2018-03-26T06:54:17.560Z,331.88
2018-03-26T06:55:17.538Z,337.50
2018-03-26T06:56:17.510Z,343.13
2018-03-26T06:57:17.489Z,343.13
2018-03-26T06:58:17.470Z,343.13
2018-03-26T06:59:17.459Z,337.50
2018-03-26T07:00:17.429Z,337.50
2018-03-26T07:01:17.406Z,331.88
2018-03-26T07:02:17.393Z,337.50
2018-03-26T07:03:17.365Z,354.38
2018-03-26T07:04:17.458Z,348.75
2018-03-26T07:05:17.320Z,348.75
2018-03-26T07:06:17.300Z,365.63
2018-03-26T07:07:17.284Z,365.63
2018-03-26T07:08:17.259Z,365.63
2018-03-26T07:09:17.253Z,354.38
2018-03-26T07:10:17.214Z,354.38
2018-03-26T07:11:17.195Z,376.88
2018-03-26T07:12:17.183Z,348.75
2018-03-26T07:13:17.163Z,354.38
2018-03-26T07:14:17.236Z,399.38
2018-03-26T07:15:17.123Z,410.63
2018-03-26T07:16:17.098Z,433.13
2018-03-26T07:17:17.069Z,455.63
2018-03-26T07:18:17.059Z,483.75
2018-03-26T07:19:17.026Z,455.63
2018-03-26T07:20:17.006Z,461.25
2018-03-26T07:21:16.988Z,444.38
2018-03-26T07:22:16.965Z,455.63
2018-03-26T07:23:16.943Z,450.00
2018-03-26T07:24:16.937Z,438.75
2018-03-26T07:25:16.905Z,438.75
2018-03-26T07:26:16.883Z,421.88
2018-03-26T07:27:16.869Z,421.88
2018-03-26T07:28:16.838Z,416.25
2018-03-26T07:29:16.819Z,427.50
2018-03-26T07:30:16.932Z,427.50
2018-03-26T07:31:16.777Z,433.13
2018-03-26T07:32:16.755Z,433.13
2018-03-26T07:33:16.794Z,438.75
2018-03-26T07:34:16.716Z,438.75
2018-03-26T07:35:16.692Z,438.75
2018-03-26T07:36:16.682Z,450.00
2018-03-26T07:37:16.652Z,450.00
2018-03-26T07:38:16.641Z,455.63
2018-03-26T07:39:16.617Z,455.63
2018-03-26T07:40:16.599Z,466.88
2018-03-26T07:41:16.716Z,489.38
2018-03-26T07:42:16.570Z,500.63
2018-03-26T07:43:16.531Z,500.63
2018-03-26T07:44:16.510Z,500.63
2018-03-26T07:45:16.493Z,495.00
2018-03-26T07:46:16.465Z,500.63
2018-03-26T07:47:16.445Z,528.75
2018-03-26T07:48:16.422Z,523.13
2018-03-26T07:49:16.408Z,517.50
2018-03-26T07:50:16.384Z,528.75
2018-03-26T07:51:16.360Z,545.63
2018-03-26T07:52:16.364Z,545.63
2018-03-26T07:53:16.321Z,523.13
2018-03-26T07:54:16.302Z,523.13
2018-03-26T07:55:16.280Z,562.50
2018-03-26T07:56:16.262Z,905.63
2018-03-26T07:57:16.240Z,1293.75
2018-03-26T07:58:16.219Z,990.00
2018-03-26T07:59:16.194Z,1355.63
2018-03-26T08:00:16.174Z,922.50
2018-03-26T08:01:16.160Z,900.00
2018-03-26T08:02:16.133Z,815.63
2018-03-26T08:03:16.264Z,736.88
2018-03-26T08:04:16.098Z,1119.38
2018-03-26T08:05:16.084Z,680.63
2018-03-26T08:06:16.102Z,1018.13
2018-03-26T08:07:16.037Z,804.38
2018-03-26T08:08:16.028Z,950.63
2018-03-26T08:09:15.999Z,1181.25
2018-03-26T08:10:15.977Z,1541.25
2018-03-26T08:11:15.960Z,1530.00
2018-03-26T08:12:15.939Z,1704.38
2018-03-26T08:13:15.922Z,1665.00
2018-03-26T08:14:15.907Z,1726.88
2018-03-26T08:15:15.894Z,1620.00
2018-03-26T08:16:15.877Z,2075.63
2018-03-26T08:17:15.862Z,1648.13
2018-03-26T08:18:15.840Z,1558.13
2018-03-26T08:19:15.817Z,1710.00
2018-03-26T08:20:15.812Z,1805.63
2018-03-26T08:21:15.787Z,1906.88
2018-03-26T08:22:15.895Z,1833.75
2018-03-26T08:23:15.760Z,1771.88
2018-03-26T08:24:15.744Z,1861.88
2018-03-26T08:25:15.730Z,1732.50
2018-03-26T08:26:15.709Z,1580.63
2018-03-26T08:27:15.696Z,1867.50
2018-03-26T08:28:15.678Z,1816.88
2018-03-26T08:29:15.666Z,1243.13
2018-03-26T08:30:15.666Z,1243.13
2018-03-26T08:31:15.640Z,1428.75
2018-03-26T08:32:15.631Z,1372.50
2018-03-26T08:33:15.610Z,1265.63
2018-03-26T08:34:15.595Z,2086.88
2018-03-26T08:35:15.577Z,1271.25
2018-03-26T08:36:15.570Z,1648.13
2018-03-26T08:37:15.548Z,1563.75
2018-03-26T08:38:15.550Z,1383.75
2018-03-26T08:39:15.525Z,1501.88
2018-03-26T08:40:15.510Z,973.13
2018-03-26T08:41:15.502Z,1935.00
2018-03-26T08:42:15.500Z,990.00
2018-03-26T08:43:15.507Z,2733.75
2018-03-26T08:44:15.508Z,2643.75
2018-03-26T08:45:15.438Z,2266.88
2018-03-26T08:46:15.432Z,1777.50
2018-03-26T08:47:15.409Z,1710.00
2018-03-26T08:48:15.397Z,1726.88
2018-03-26T08:49:15.392Z,2694.38
2018-03-26T08:50:15.443Z,1507.50
2018-03-26T08:51:15.355Z,2086.88
2018-03-26T08:52:15.342Z,2784.38
2018-03-26T08:53:15.336Z,2221.88
2018-03-26T08:54:15.318Z,2373.75
2018-03-26T08:55:15.304Z,2373.75
2018-03-26T08:56:15.326Z,1153.13
2018-03-26T08:57:15.281Z,1552.50
2018-03-26T08:58:15.276Z,2756.25
2018-03-26T08:59:15.279Z,2649.38
2018-03-26T09:00:15.245Z,1867.50
2018-03-26T09:01:15.250Z,2008.13
2018-03-26T09:02:15.220Z,2458.13
2018-03-26T09:03:15.335Z,1996.88
2018-03-26T09:04:15.202Z,2401.88
2018-03-26T09:05:15.194Z,2784.38
2018-03-26T09:06:15.227Z,2761.88
2018-03-26T09:07:15.164Z,2761.88
2018-03-26T09:08:15.153Z,2958.75
2018-03-26T09:09:15.146Z,2109.38
2018-03-26T09:10:15.131Z,2188.13
2018-03-26T09:11:15.125Z,2626.88
2018-03-26T09:12:15.114Z,2430.00
2018-03-26T09:13:15.103Z,2981.25
2018-03-26T09:14:15.093Z,2829.38
2018-03-26T09:15:15.082Z,2801.25
2018-03-26T09:16:15.072Z,2655.00
2018-03-26T09:17:15.066Z,2452.50
2018-03-26T09:18:15.055Z,2531.25
2018-03-26T09:19:15.046Z,2435.63
2018-03-26T09:20:15.040Z,2812.50
2018-03-26T09:21:15.041Z,2385.00
2018-03-26T09:22:15.020Z,2210.63
2018-03-26T09:23:15.019Z,2323.13
2018-03-26T09:24:15.008Z,3043.13
2018-03-26T09:25:14.995Z,3301.88
2018-03-26T09:26:15.001Z,3318.75
2018-03-26T09:27:14.979Z,3217.50
2018-03-26T09:28:14.972Z,3195.00
2018-03-26T09:29:14.961Z,3251.25
2018-03-26T09:30:14.952Z,3015.00
2018-03-26T09:31:14.948Z,2958.75
2018-03-26T09:32:14.947Z,2998.13
2018-03-26T09:33:14.937Z,2610.00
2018-03-26T09:34:14.923Z,2863.13
2018-03-26T09:35:14.972Z,3031.88
2018-03-26T09:36:14.967Z,3195.00
2018-03-26T09:37:14.902Z,3166.88
2018-03-26T09:38:14.897Z,3268.13
2018-03-26T09:39:14.908Z,3150.00
2018-03-26T09:40:14.881Z,3290.63
2018-03-26T09:41:14.883Z,3465.00
2018-03-26T09:42:14.881Z,3318.75
2018-03-26T09:43:14.862Z,3279.38
2018-03-26T09:44:14.847Z,3431.25
2018-03-26T09:45:14.850Z,3414.38
2018-03-26T09:46:14.859Z,3240.00
2018-03-26T09:47:14.836Z,3071.25
2018-03-26T09:48:14.835Z,3088.13
2018-03-26T09:49:14.845Z,3588.75
2018-03-26T09:50:14.818Z,3493.13
2018-03-26T09:51:14.815Z,3240.00
2018-03-26T09:52:14.915Z,3223.13
2018-03-26T09:53:14.863Z,3324.38
2018-03-26T09:54:14.798Z,3420.00
2018-03-26T09:55:14.858Z,3386.25
2018-03-26T09:56:14.789Z,3369.38
2018-03-26T09:57:14.779Z,3476.25
2018-03-26T09:58:14.788Z,3650.63
2018-03-26T09:59:14.770Z,3335.63
2018-03-26T10:00:14.764Z,3301.88
2018-03-26T10:01:14.761Z,3380.63
2018-03-26T10:02:14.755Z,3420.00
2018-03-26T10:03:14.755Z,3403.13
2018-03-26T10:04:14.781Z,3375.00
2018-03-26T10:05:14.806Z,3538.13
2018-03-26T10:06:14.734Z,3380.63
2018-03-26T10:07:14.729Z,3256.88
2018-03-26T10:08:14.834Z,3465.00
2018-03-26T10:09:14.727Z,3504.38
2018-03-26T10:10:14.724Z,3543.75
2018-03-26T10:11:14.714Z,3453.75
2018-03-26T10:12:14.714Z,3481.88
2018-03-26T10:13:14.703Z,3465.00
2018-03-26T10:14:14.694Z,3442.50
2018-03-26T10:15:14.687Z,3285.00
2018-03-26T10:16:14.687Z,3341.25
2018-03-26T10:17:14.682Z,3611.25
2018-03-26T10:18:14.672Z,3358.13
2018-03-26T10:19:14.673Z,3341.25
2018-03-26T10:20:14.666Z,3195.00
2018-03-26T10:21:14.663Z,3403.13
2018-03-26T10:22:14.657Z,3560.63
2018-03-26T10:23:14.652Z,3588.75
2018-03-26T10:24:14.644Z,3594.38
2018-03-26T10:25:14.700Z,3611.25
2018-03-26T10:26:14.636Z,3538.13
2018-03-26T10:27:14.640Z,3605.63
2018-03-26T10:28:14.678Z,3583.13
2018-03-26T10:29:14.621Z,3661.88
2018-03-26T10:30:14.622Z,3622.50
2018-03-26T10:31:14.643Z,3583.13
2018-03-26T10:32:14.611Z,3543.75
2018-03-26T10:33:14.603Z,3245.63
2018-03-26T10:34:14.607Z,2587.50
2018-03-26T10:35:14.597Z,3048.75
2018-03-26T10:36:14.595Z,3206.25
2018-03-26T10:37:14.584Z,3240.00
2018-03-26T10:38:14.582Z,3296.25
2018-03-26T10:39:14.581Z,3127.50
2018-03-26T10:40:14.570Z,2925.00
2018-03-26T10:41:14.562Z,2947.50
2018-03-26T10:42:14.560Z,3065.63
2018-03-26T10:43:14.552Z,3459.38
2018-03-26T10:44:14.553Z,3605.63
2018-03-26T10:45:14.552Z,3352.50
2018-03-26T10:46:14.663Z,3127.50
2018-03-26T10:47:14.532Z,3009.38
2018-03-26T10:48:14.526Z,3341.25
2018-03-26T10:49:14.533Z,3386.25
2018-03-26T10:50:14.516Z,3408.75
2018-03-26T10:51:14.511Z,3324.38
2018-03-26T10:52:14.510Z,3178.13
2018-03-26T10:53:14.498Z,3375.00
2018-03-26T10:54:14.497Z,3510.00
2018-03-26T10:55:14.493Z,3375.00
2018-03-26T10:56:14.488Z,3380.63
2018-03-26T10:57:14.477Z,3425.63
2018-03-26T10:58:14.469Z,3465.00
2018-03-26T10:59:14.563Z,3290.63
2018-03-26T11:00:14.471Z,3054.38
2018-03-26T11:01:14.451Z,2812.50
2018-03-26T11:02:14.447Z,2745.00
2018-03-26T11:03:14.476Z,2508.75
2018-03-26T11:04:14.440Z,2829.38
2018-03-26T11:05:14.437Z,3105.00
2018-03-26T11:06:14.424Z,3262.50
2018-03-26T11:07:14.417Z,3251.25
2018-03-26T11:08:14.493Z,2857.50
2018-03-26T11:09:14.405Z,2784.38
2018-03-26T11:10:14.400Z,2711.25
2018-03-26T11:11:14.403Z,2795.63
2018-03-26T11:12:14.388Z,2992.50
2018-03-26T11:13:14.386Z,3127.50
2018-03-26T11:14:14.389Z,2947.50
2018-03-26T11:15:14.398Z,3161.25
2018-03-26T11:17:14.352Z,3026.25
2018-03-26T11:18:14.404Z,3228.75
2018-03-26T11:19:14.344Z,3234.38
2018-03-26T11:20:14.331Z,3105.00
2018-03-26T11:21:14.322Z,3166.88
2018-03-26T11:22:14.327Z,3110.63
2018-03-26T11:23:14.326Z,2964.38
2018-03-26T11:24:14.306Z,3110.63
2018-03-26T11:25:14.299Z,3358.13
2018-03-26T11:26:14.286Z,3290.63
2018-03-26T11:27:14.284Z,2835.00
2018-03-26T11:28:14.274Z,2925.00
2018-03-26T11:29:14.270Z,2863.13
2018-03-26T11:30:14.266Z,2941.88
2018-03-26T11:31:14.258Z,3015.00
2018-03-26T11:32:14.248Z,2851.88
2018-03-26T11:33:14.245Z,2975.63
2018-03-26T11:34:14.237Z,2896.88
2018-03-26T11:35:14.229Z,2936.25
2018-03-26T11:36:14.443Z,2677.50
2018-03-26T11:37:14.213Z,2671.88
2018-03-26T11:38:14.212Z,2373.75
2018-03-26T11:39:14.278Z,2300.63
2018-03-26T11:40:14.206Z,2379.38
2018-03-26T11:41:14.189Z,2340.00
2018-03-26T11:42:14.177Z,2632.50
2018-03-26T11:43:14.172Z,2497.50
2018-03-26T11:44:14.162Z,2480.63
2018-03-26T11:45:14.155Z,2660.63
2018-03-26T11:46:14.145Z,2773.13
2018-03-26T11:47:14.137Z,2722.50
2018-03-26T11:48:14.136Z,2857.50
2018-03-26T11:49:14.132Z,2626.88
2018-03-26T11:50:14.111Z,2615.63
2018-03-26T11:51:14.107Z,2750.63
2018-03-26T11:52:14.096Z,2643.75
2018-03-26T11:53:14.087Z,2536.88
2018-03-26T11:54:14.077Z,2503.13
2018-03-26T11:55:14.133Z,2430.00
2018-03-26T11:56:14.069Z,2469.38
2018-03-26T11:57:14.056Z,1513.13
2018-03-26T11:58:14.044Z,725.63
2018-03-26T11:59:14.032Z,658.13
2018-03-26T12:00:14.030Z,624.38
2018-03-26T12:01:14.023Z,607.50
2018-03-26T12:02:14.003Z,585.00
2018-03-26T12:03:13.992Z,579.38
2018-03-26T12:04:13.982Z,579.38
2018-03-26T12:05:14.030Z,641.25
2018-03-26T12:06:13.968Z,646.88
2018-03-26T12:07:13.953Z,607.50
2018-03-26T12:08:13.941Z,601.88
2018-03-26T12:09:13.931Z,596.25
2018-03-26T12:10:13.918Z,556.88
2018-03-26T12:11:13.910Z,551.25
2018-03-26T12:12:13.900Z,551.25
2018-03-26T12:13:13.894Z,562.50
2018-03-26T12:14:13.880Z,596.25
2018-03-26T12:15:13.871Z,562.50
2018-03-26T12:16:13.850Z,551.25
2018-03-26T12:17:13.842Z,545.63
2018-03-26T12:18:13.911Z,517.50
2018-03-26T12:19:13.819Z,506.25
2018-03-26T12:20:13.804Z,495.00
2018-03-26T12:21:13.816Z,523.13
2018-03-26T12:22:13.780Z,517.50
2018-03-26T12:23:13.770Z,511.88
2018-03-26T12:24:13.750Z,506.25
2018-03-26T12:25:13.737Z,500.63
2018-03-26T12:26:13.722Z,517.50
2018-03-26T12:27:13.715Z,478.13
2018-03-26T12:28:14.110Z,455.63
2018-03-26T12:29:13.692Z,427.50
2018-03-26T12:30:13.671Z,405.00
2018-03-26T12:31:13.779Z,393.75
2018-03-26T12:32:13.640Z,393.75
2018-03-26T12:33:13.635Z,399.38
2018-03-26T12:34:13.617Z,393.75
2018-03-26T12:35:13.599Z,388.13
2018-03-26T12:36:13.588Z,376.88
2018-03-26T12:37:13.582Z,382.50
2018-03-26T12:38:13.551Z,382.50
2018-03-26T12:39:13.650Z,382.50
2018-03-26T12:40:13.521Z,382.50
2018-03-26T12:41:13.508Z,376.88
2018-03-26T12:42:13.517Z,371.25
2018-03-26T12:43:13.478Z,382.50